createdAt,value
2023-02-27T00:01:53.424Z,100.00
2023-02-27T00:04:19.913Z,100.00
2023-02-27T00:06:46.505Z,100.00
2023-02-27T00:09:13.214Z,100.00
2023-02-27T00:11:40.266Z,100.00
2023-02-27T00:14:06.900Z,100.00
2023-02-27T00:16:34.319Z,100.00
2023-02-27T00:19:04.584Z,100.00
2023-02-27T00:21:32.082Z,100.00
2023-02-27T00:23:58.658Z,100.00
2023-02-27T00:26:25.219Z,100.00
2023-02-27T00:28:52.145Z,100.00
2023-02-27T00:31:18.741Z,100.00
2023-02-27T00:33:45.320Z,100.00
2023-02-27T00:36:11.883Z,100.00
2023-02-27T00:38:38.431Z,100.00
2023-02-27T00:41:05.257Z,100.00
2023-02-27T00:43:31.753Z,100.00
2023-02-27T00:45:58.550Z,100.00
2023-02-27T00:48:25.255Z,100.00
2023-02-27T00:50:51.815Z,100.00
2023-02-27T00:53:18.347Z,100.00
2023-02-27T00:55:44.870Z,100.00
2023-02-27T00:58:11.447Z,100.00
2023-02-27T01:00:38.180Z,100.00
2023-02-27T01:03:04.958Z,100.00
2023-02-27T01:05:32.049Z,100.00
2023-02-27T01:07:58.590Z,100.00
2023-02-27T01:10:25.366Z,100.00
2023-02-27T01:12:52.005Z,100.00
2023-02-27T01:15:18.606Z,100.00
2023-02-27T01:17:45.589Z,100.00
2023-02-27T01:20:12.974Z,100.00
2023-02-27T01:22:40.079Z,100.00
2023-02-27T01:25:07.447Z,100.00
2023-02-27T01:27:34.142Z,100.00
2023-02-27T01:30:00.677Z,100.00
2023-02-27T01:32:27.370Z,100.00
2023-02-27T01:34:54.011Z,100.00
2023-02-27T01:37:20.564Z,100.00
2023-02-27T01:39:47.077Z,100.00
2023-02-27T01:42:23.133Z,100.00
2023-02-27T01:45:11.260Z,100.00
2023-02-27T01:47:45.821Z,100.00
2023-02-27T01:50:14.465Z,100.00
2023-02-27T01:52:43.121Z,100.00
2023-02-27T01:55:13.174Z,100.00
2023-02-27T01:57:41.416Z,100.00
2023-02-27T02:00:10.004Z,100.00
2023-02-27T02:02:40.371Z,100.00
2023-02-27T02:05:07.548Z,100.00
2023-02-27T02:07:38.490Z,100.00
2023-02-27T02:10:06.458Z,100.00
2023-02-27T02:12:35.852Z,100.00
2023-02-27T02:15:03.618Z,100.00
2023-02-27T02:17:41.169Z,100.00
2023-02-27T02:20:07.649Z,100.00
2023-02-27T02:22:36.860Z,100.00
2023-02-27T02:25:26.231Z,100.00
2023-02-27T02:28:10.039Z,100.00
2023-02-27T02:30:48.827Z,100.00
2023-02-27T02:33:35.039Z,100.00
2023-02-27T02:36:31.190Z,100.00
2023-02-27T02:39:09.581Z,100.00
2023-02-27T02:41:54.687Z,100.00
2023-02-27T02:44:47.118Z,100.00
2023-02-27T02:47:22.457Z,100.00
2023-02-27T02:50:02.652Z,100.00
2023-02-27T02:52:47.962Z,100.00
2023-02-27T02:55:25.024Z,100.00
2023-02-27T02:58:12.202Z,100.00
2023-02-27T03:00:48.904Z,100.00
2023-02-27T03:03:22.472Z,100.00
2023-02-27T03:05:55.799Z,100.00
2023-02-27T03:08:27.060Z,100.00
2023-02-27T03:11:03.628Z,100.00
2023-02-27T03:13:39.164Z,100.00
2023-02-27T03:16:21.708Z,100.00
2023-02-27T03:18:56.648Z,100.00
2023-02-27T03:21:46.452Z,100.00
2023-02-27T03:24:19.785Z,100.00
2023-02-27T03:26:50.268Z,100.00
2023-02-27T03:29:23.823Z,100.00
2023-02-27T03:31:57.029Z,100.00
2023-02-27T03:34:29.900Z,100.00
2023-02-27T03:37:08.186Z,100.00
2023-02-27T03:39:40.400Z,100.00
2023-02-27T03:42:26.757Z,100.00
2023-02-27T03:45:06.291Z,100.00
2023-02-27T03:47:34.549Z,100.00
2023-02-27T03:50:01.165Z,100.00
2023-02-27T03:52:30.186Z,100.00
2023-02-27T03:55:01.779Z,100.00
2023-02-27T03:57:29.344Z,100.00
2023-02-27T03:59:55.946Z,100.00
2023-02-27T04:02:22.873Z,100.00
2023-02-27T04:04:49.393Z,100.00
2023-02-27T04:07:29.607Z,100.00
2023-02-27T04:09:58.958Z,100.00
2023-02-27T04:12:50.018Z,100.00
2023-02-27T04:15:50.833Z,100.00
2023-02-27T04:18:48.070Z,100.00
2023-02-27T04:21:46.000Z,100.00
2023-02-27T04:24:27.523Z,100.00
2023-02-27T04:27:31.418Z,100.00
2023-02-27T04:30:13.193Z,100.00
2023-02-27T04:32:48.654Z,100.00
2023-02-27T04:35:23.913Z,100.00
2023-02-27T04:38:04.490Z,100.00
2023-02-27T04:40:45.180Z,100.00
2023-02-27T04:43:14.973Z,100.00
2023-02-27T04:45:44.912Z,100.00
2023-02-27T04:48:21.009Z,100.00
2023-02-27T04:50:57.482Z,100.00
2023-02-27T04:53:34.198Z,100.00
2023-02-27T04:56:12.907Z,100.00
2023-02-27T04:58:50.645Z,100.00
2023-02-27T05:01:23.484Z,100.00
2023-02-27T05:03:54.079Z,100.00
2023-02-27T05:06:25.642Z,100.00
2023-02-27T05:09:13.974Z,100.00
2023-02-27T05:12:01.776Z,100.00
2023-02-27T05:14:31.637Z,100.00
2023-02-27T05:17:18.048Z,100.00
2023-02-27T05:19:46.272Z,100.00
2023-02-27T05:22:21.809Z,100.00
2023-02-27T05:25:29.405Z,100.00
2023-02-27T05:28:30.419Z,100.00
2023-02-27T05:31:04.742Z,100.00
2023-02-27T05:33:36.762Z,100.00
2023-02-27T05:36:17.118Z,100.00
2023-02-27T05:38:48.443Z,100.00
2023-02-27T05:41:20.474Z,100.00
2023-02-27T05:43:52.177Z,100.00
2023-02-27T05:46:27.392Z,100.00
2023-02-27T05:49:16.692Z,100.00
2023-02-27T05:51:46.994Z,100.00
2023-02-27T05:54:24.430Z,100.00
2023-02-27T05:56:54.273Z,100.00
2023-02-27T05:59:29.320Z,100.00
2023-02-27T06:01:56.101Z,100.00
2023-02-27T06:04:22.738Z,100.00
2023-02-27T06:06:49.304Z,100.00
2023-02-27T06:09:16.659Z,100.00
2023-02-27T06:11:43.222Z,100.00
2023-02-27T06:14:09.755Z,100.00
2023-02-27T06:16:39.203Z,100.00
2023-02-27T06:19:06.488Z,100.00
2023-02-27T06:21:33.433Z,100.00
2023-02-27T06:23:59.973Z,100.00
2023-02-27T06:26:26.772Z,100.00
2023-02-27T06:28:53.432Z,100.00
2023-02-27T06:31:20.082Z,100.00
2023-02-27T06:33:46.590Z,100.00
2023-02-27T06:36:13.106Z,100.00
2023-02-27T06:38:40.400Z,100.00
2023-02-27T06:41:07.681Z,100.00
2023-02-27T06:43:36.594Z,100.00
2023-02-27T06:46:03.213Z,100.00
2023-02-27T06:48:29.760Z,100.00
2023-02-27T06:50:56.965Z,100.00
2023-02-27T06:53:25.011Z,100.00
2023-02-27T06:55:52.004Z,100.00
2023-02-27T06:58:19.098Z,100.00
2023-02-27T07:00:45.628Z,100.00
2023-02-27T07:03:13.217Z,100.00
2023-02-27T07:05:41.477Z,100.00
2023-02-27T07:08:08.406Z,100.00
2023-02-27T07:10:35.080Z,100.00
2023-02-27T07:13:01.663Z,100.00
2023-02-27T07:15:28.341Z,100.00
2023-02-27T07:17:54.864Z,100.00
2023-02-27T07:20:21.401Z,100.00
2023-02-27T07:22:47.980Z,100.00
2023-02-27T07:25:14.674Z,100.00
2023-02-27T07:27:41.500Z,100.00
2023-02-27T07:30:08.820Z,100.00
2023-02-27T07:32:36.060Z,100.00
2023-02-27T07:35:04.026Z,100.00
2023-02-27T07:37:30.582Z,100.00
2023-02-27T07:39:57.186Z,100.00
2023-02-27T07:42:23.737Z,100.00
2023-02-27T07:44:50.238Z,100.00
2023-02-27T07:47:17.864Z,100.00
2023-02-27T07:49:44.746Z,100.00
2023-02-27T07:52:11.345Z,100.00
2023-02-27T07:54:38.608Z,100.00
2023-02-27T07:57:06.095Z,100.00
2023-02-27T07:59:33.018Z,100.00
2023-02-27T08:01:59.593Z,100.00
2023-02-27T08:04:26.146Z,100.00
2023-02-27T08:06:52.662Z,100.00
2023-02-27T08:09:19.304Z,100.00
2023-02-27T08:11:48.533Z,100.00
2023-02-27T08:14:15.629Z,100.00
2023-02-27T08:16:42.296Z,100.00
2023-02-27T08:19:09.036Z,100.00
2023-02-27T08:21:35.574Z,100.00
2023-02-27T08:24:02.164Z,100.00
2023-02-27T08:26:29.149Z,100.00
2023-02-27T08:28:55.790Z,100.00
2023-02-27T08:31:22.339Z,100.00
2023-02-27T08:33:55.295Z,100.00
2023-02-27T08:36:24.548Z,100.00
2023-02-27T08:38:51.133Z,100.00
2023-02-27T08:41:17.836Z,100.00
2023-02-27T08:43:44.364Z,100.00
2023-02-27T08:46:11.218Z,100.00
2023-02-27T08:48:37.925Z,100.00
2023-02-27T08:51:04.511Z,100.00
2023-02-27T08:53:31.027Z,100.00
2023-02-27T08:55:57.520Z,100.00
2023-02-27T08:58:24.085Z,100.00
2023-02-27T09:00:50.675Z,100.00
2023-02-27T09:03:17.227Z,100.00
2023-02-27T09:05:43.886Z,100.00
2023-02-27T09:08:10.396Z,100.00
2023-02-27T09:10:37.232Z,100.00
2023-02-27T09:13:03.808Z,100.00
2023-02-27T09:15:31.917Z,100.00
2023-02-27T09:18:03.326Z,100.00
2023-02-27T09:20:31.785Z,100.00
2023-02-27T09:22:59.755Z,100.00
2023-02-27T09:25:27.570Z,100.00
2023-02-27T09:27:54.642Z,100.00
2023-02-27T09:30:21.876Z,100.00
2023-02-27T09:32:48.899Z,100.00
2023-02-27T09:35:17.721Z,100.00
2023-02-27T09:37:44.506Z,100.00
2023-02-27T09:40:22.783Z,100.00
2023-02-27T09:42:51.697Z,100.00
2023-02-27T09:45:23.810Z,100.00
2023-02-27T09:47:56.842Z,100.00
2023-02-27T09:50:40.687Z,100.00
2023-02-27T09:53:13.906Z,100.00
2023-02-27T09:55:42.873Z,100.00
2023-02-27T09:58:41.591Z,100.00
2023-02-27T10:01:30.804Z,100.00
2023-02-27T10:04:02.988Z,100.00
2023-02-27T10:06:48.547Z,100.00
2023-02-27T10:09:20.928Z,100.00
2023-02-27T10:11:57.681Z,100.00
2023-02-27T10:14:29.890Z,100.00
2023-02-27T10:16:58.627Z,100.00
2023-02-27T10:19:33.376Z,100.00
2023-02-27T10:22:06.417Z,100.00
2023-02-27T10:24:41.150Z,100.00
2023-02-27T10:27:15.920Z,100.00
2023-02-27T10:29:42.838Z,100.00
2023-02-27T10:32:14.935Z,100.00
2023-02-27T10:34:44.123Z,100.00
2023-02-27T10:37:16.127Z,100.00
2023-02-27T10:39:50.394Z,100.00
2023-02-27T10:42:18.317Z,100.00
2023-02-27T10:44:44.984Z,100.00
2023-02-27T10:47:16.140Z,100.00
2023-02-27T10:49:43.462Z,100.00
2023-02-27T10:52:15.366Z,100.00
2023-02-27T10:54:43.127Z,100.00
2023-02-27T10:57:35.501Z,100.00
2023-02-27T11:00:06.277Z,100.00
2023-02-27T11:02:39.678Z,100.00
2023-02-27T11:05:18.306Z,100.00
2023-02-27T11:07:45.174Z,100.00
2023-02-27T11:10:14.590Z,100.00
2023-02-27T11:12:56.263Z,100.00
2023-02-27T11:15:25.775Z,100.00
2023-02-27T11:17:53.268Z,100.00
2023-02-27T11:20:39.936Z,100.00
2023-02-27T11:23:16.675Z,100.00
2023-02-27T11:25:44.312Z,100.00
2023-02-27T11:28:29.797Z,100.00
2023-02-27T11:31:01.138Z,100.00
2023-02-27T11:33:31.600Z,100.00
2023-02-27T11:35:59.619Z,100.00
2023-02-27T11:38:29.630Z,100.00
2023-02-27T11:40:58.851Z,100.00
2023-02-27T11:43:27.221Z,100.00
2023-02-27T11:46:32.639Z,100.00
2023-02-27T11:49:22.100Z,100.00
2023-02-27T11:52:03.404Z,100.00
2023-02-27T11:54:40.086Z,100.00
2023-02-27T11:57:18.495Z,100.00
2023-02-27T11:59:49.113Z,100.00
2023-02-27T12:02:29.160Z,100.00
2023-02-27T12:05:18.325Z,100.00
2023-02-27T12:07:54.393Z,100.00
2023-02-27T12:10:26.007Z,100.00
2023-02-27T12:13:31.679Z,100.00
2023-02-27T12:16:12.894Z,100.00
2023-02-27T12:18:50.662Z,100.00
2023-02-27T12:21:24.686Z,100.00
2023-02-27T12:23:54.625Z,99.05
2023-02-27T12:26:38.140Z,96.65
2023-02-27T12:29:28.348Z,98.14
2023-02-27T12:32:09.766Z,96.03
2023-02-27T12:34:46.803Z,90.11
2023-02-27T12:37:23.640Z,86.37
2023-02-27T12:40:03.818Z,83.95
2023-02-27T12:42:55.280Z,88.17
2023-02-27T12:45:26.228Z,90.16
2023-02-27T12:48:34.875Z,89.56
2023-02-27T12:51:06.624Z,90.46
2023-02-27T12:53:48.293Z,83.78
2023-02-27T12:56:23.863Z,81.97
2023-02-27T12:59:22.908Z,82.57
2023-02-27T13:02:17.148Z,80.90
2023-02-27T13:04:47.260Z,84.92
2023-02-27T13:07:24.818Z,84.89
2023-02-27T13:10:13.968Z,87.40
2023-02-27T13:12:50.988Z,79.61
2023-02-27T13:15:17.464Z,88.17
2023-02-27T13:17:49.517Z,84.25
2023-02-27T13:20:22.453Z,84.22
2023-02-27T13:23:12.730Z,82.85
2023-02-27T13:25:43.113Z,82.63
2023-02-27T13:28:16.668Z,85.43
2023-02-27T13:30:47.302Z,87.44
2023-02-27T13:33:42.438Z,85.88
2023-02-27T13:36:32.035Z,87.39
2023-02-27T13:38:58.651Z,84.17
2023-02-27T13:41:25.122Z,85.46
2023-02-27T13:43:58.971Z,97.10
2023-02-27T13:46:25.429Z,95.45
2023-02-27T13:49:05.193Z,95.58
2023-02-27T13:51:34.766Z,100.00
2023-02-27T13:54:13.508Z,100.00
2023-02-27T13:56:47.570Z,96.97
2023-02-27T13:59:19.660Z,96.47
2023-02-27T14:02:02.597Z,100.00
2023-02-27T14:04:33.063Z,100.00
2023-02-27T14:07:07.406Z,100.00
2023-02-27T14:09:41.068Z,100.00
2023-02-27T14:12:39.174Z,100.00
2023-02-27T14:15:22.371Z,100.00
2023-02-27T14:18:09.646Z,100.00
2023-02-27T14:20:39.041Z,100.00
2023-02-27T14:23:28.203Z,100.00
2023-02-27T14:25:55.984Z,100.00
2023-02-27T14:28:48.744Z,100.00
2023-02-27T14:31:30.091Z,100.00
2023-02-27T14:34:00.900Z,100.00
2023-02-27T14:36:34.591Z,100.00
2023-02-27T14:39:03.578Z,100.00
2023-02-27T14:41:39.496Z,100.00
2023-02-27T14:44:06.186Z,100.00
2023-02-27T14:46:39.435Z,100.00
2023-02-27T14:49:16.614Z,100.00
2023-02-27T14:51:43.813Z,100.00
2023-02-27T14:54:14.750Z,100.00
2023-02-27T14:56:42.129Z,100.00
2023-02-27T14:59:23.465Z,100.00
2023-02-27T15:01:51.093Z,100.00
2023-02-27T15:04:20.464Z,100.00
2023-02-27T15:06:50.382Z,100.00
2023-02-27T15:09:23.795Z,100.00
2023-02-27T15:12:04.053Z,100.00
2023-02-27T15:14:36.054Z,100.00
2023-02-27T15:17:03.797Z,100.00
2023-02-27T15:19:31.268Z,100.00
2023-02-27T15:22:01.511Z,100.00
2023-02-27T15:24:49.691Z,100.00
2023-02-27T15:27:21.287Z,100.00
2023-02-27T15:29:54.151Z,100.00
2023-02-27T15:32:23.334Z,100.00
2023-02-27T15:34:49.996Z,100.00
2023-02-27T15:37:22.867Z,100.00
2023-02-27T15:39:51.595Z,100.00
2023-02-27T15:42:21.787Z,100.00
2023-02-27T15:44:48.762Z,100.00
2023-02-27T15:47:35.705Z,100.00
2023-02-27T15:50:17.245Z,100.00
2023-02-27T15:52:52.392Z,100.00
2023-02-27T15:55:29.124Z,100.00
2023-02-27T15:58:02.831Z,100.00
2023-02-27T16:00:31.765Z,100.00
2023-02-27T16:02:59.474Z,100.00
2023-02-27T16:05:44.124Z,100.00
2023-02-27T16:08:18.186Z,100.00
2023-02-27T16:10:46.668Z,100.00
2023-02-27T16:13:33.020Z,100.00
2023-02-27T16:16:21.460Z,100.00
2023-02-27T16:18:51.958Z,100.00
2023-02-27T16:21:23.119Z,100.00
2023-02-27T16:23:50.097Z,100.00
2023-02-27T16:26:31.908Z,100.00
2023-02-27T16:29:23.970Z,100.00
2023-02-27T16:31:57.690Z,100.00
2023-02-27T16:34:47.287Z,100.00
2023-02-27T16:37:21.295Z,100.00
2023-02-27T16:39:50.590Z,100.00
2023-02-27T16:42:17.189Z,100.00
2023-02-27T16:44:43.756Z,100.00
2023-02-27T16:47:10.415Z,100.00
2023-02-27T16:49:37.010Z,100.00
2023-02-27T16:52:05.787Z,100.00
2023-02-27T16:54:32.406Z,100.00
2023-02-27T16:56:58.980Z,100.00
2023-02-27T16:59:30.107Z,100.00
2023-02-27T17:01:58.139Z,100.00
2023-02-27T17:04:26.334Z,100.00
2023-02-27T17:06:54.352Z,100.00
2023-02-27T17:09:21.423Z,100.00
2023-02-27T17:11:49.252Z,100.00
2023-02-27T17:14:16.214Z,100.00
2023-02-27T17:16:42.843Z,100.00
2023-02-27T17:19:09.392Z,100.00
2023-02-27T17:21:36.086Z,100.00
2023-02-27T17:24:02.769Z,100.00
2023-02-27T17:26:31.154Z,100.00
2023-02-27T17:28:58.634Z,100.00
2023-02-27T17:31:25.734Z,100.00
2023-02-27T17:33:53.642Z,100.00
2023-02-27T17:36:21.819Z,100.00
2023-02-27T17:38:49.152Z,100.00
2023-02-27T17:41:16.477Z,100.00
2023-02-27T17:43:43.050Z,100.00
2023-02-27T17:46:11.354Z,100.00
2023-02-27T17:48:38.716Z,100.00
2023-02-27T17:51:07.178Z,100.00
2023-02-27T17:53:34.522Z,100.00
2023-02-27T17:56:01.463Z,100.00
2023-02-27T17:58:28.192Z,100.00
2023-02-27T18:00:54.723Z,100.00
2023-02-27T18:03:21.448Z,100.00
2023-02-27T18:05:51.238Z,100.00
2023-02-27T18:08:18.554Z,100.00
2023-02-27T18:10:49.701Z,100.00
2023-02-27T18:13:17.951Z,100.00
2023-02-27T18:15:45.837Z,100.00
2023-02-27T18:18:13.223Z,100.00
2023-02-27T18:20:40.515Z,100.00
2023-02-27T18:23:09.327Z,100.00
2023-02-27T18:25:36.704Z,100.00
2023-02-27T18:28:04.552Z,100.00
2023-02-27T18:30:35.861Z,100.00
2023-02-27T18:33:02.436Z,100.00
2023-02-27T18:35:29.021Z,100.00
2023-02-27T18:37:55.551Z,100.00
2023-02-27T18:40:24.572Z,100.00
2023-02-27T18:42:52.520Z,100.00
2023-02-27T18:45:19.928Z,100.00
2023-02-27T18:47:47.046Z,100.00
2023-02-27T18:50:14.054Z,100.00
2023-02-27T18:52:40.628Z,100.00
2023-02-27T18:55:07.992Z,100.00
2023-02-27T18:57:34.774Z,100.00
2023-02-27T19:00:01.286Z,100.00
2023-02-27T19:02:27.904Z,100.00
2023-02-27T19:04:54.507Z,100.00
2023-02-27T19:07:23.328Z,100.00
2023-02-27T19:09:49.939Z,100.00
2023-02-27T19:12:17.398Z,100.00
2023-02-27T19:14:43.956Z,100.00
2023-02-27T19:17:10.478Z,100.00
2023-02-27T19:19:37.432Z,100.00
2023-02-27T19:22:04.088Z,100.00
2023-02-27T19:24:30.794Z,100.00
2023-02-27T19:26:57.426Z,100.00
2023-02-27T19:29:23.947Z,100.00
2023-02-27T19:31:50.759Z,100.00
2023-02-27T19:34:17.373Z,100.00
2023-02-27T19:36:44.141Z,100.00
2023-02-27T19:39:11.350Z,100.00
2023-02-27T19:41:38.021Z,100.00
2023-02-27T19:44:04.608Z,100.00
2023-02-27T19:46:34.102Z,100.00
2023-02-27T19:49:04.483Z,100.00
2023-02-27T19:51:31.859Z,100.00
2023-02-27T19:53:58.505Z,100.00
2023-02-27T19:56:27.416Z,100.00
2023-02-27T19:58:54.558Z,100.00
2023-02-27T20:01:26.537Z,100.00
2023-02-27T20:03:53.426Z,100.00
2023-02-27T20:06:23.220Z,100.00
2023-02-27T20:08:50.473Z,100.00
2023-02-27T20:11:17.586Z,100.00
2023-02-27T20:13:44.865Z,100.00
2023-02-27T20:16:16.820Z,100.00
2023-02-27T20:18:44.684Z,100.00
2023-02-27T20:21:17.018Z,100.00
2023-02-27T20:23:45.401Z,100.00
2023-02-27T20:26:33.110Z,100.00
2023-02-27T20:29:02.448Z,100.00
2023-02-27T20:31:31.775Z,100.00
2023-02-27T20:34:00.885Z,100.00
2023-02-27T20:36:28.721Z,100.00
2023-02-27T20:38:55.657Z,100.00
2023-02-27T20:41:23.389Z,100.00
2023-02-27T20:43:50.027Z,100.00
2023-02-27T20:46:28.691Z,100.00
2023-02-27T20:49:00.411Z,100.00
2023-02-27T20:51:30.764Z,100.00
2023-02-27T20:53:59.807Z,100.00
2023-02-27T20:56:32.140Z,100.00
2023-02-27T20:58:59.801Z,100.00
2023-02-27T21:01:26.631Z,100.00
2023-02-27T21:03:55.797Z,100.00
2023-02-27T21:06:23.959Z,100.00
2023-02-27T21:08:53.915Z,100.00
2023-02-27T21:11:27.402Z,100.00
2023-02-27T21:13:55.618Z,100.00
2023-02-27T21:16:22.762Z,100.00
2023-02-27T21:18:52.055Z,100.00
2023-02-27T21:21:25.740Z,100.00
2023-02-27T21:23:52.587Z,100.00
2023-02-27T21:26:39.199Z,100.00
2023-02-27T21:29:11.102Z,100.00
2023-02-27T21:31:38.990Z,100.00
2023-02-27T21:34:08.125Z,100.00
2023-02-27T21:36:37.686Z,100.00
2023-02-27T21:39:06.980Z,100.00
2023-02-27T21:41:34.822Z,100.00
2023-02-27T21:44:03.288Z,100.00
2023-02-27T21:46:30.042Z,100.00
2023-02-27T21:48:57.074Z,100.00
2023-02-27T21:51:38.870Z,100.00
2023-02-27T21:54:07.377Z,100.00
2023-02-27T21:56:33.950Z,100.00
2023-02-27T21:59:01.773Z,100.00
2023-02-27T22:01:29.799Z,100.00
2023-02-27T22:03:57.099Z,100.00
2023-02-27T22:06:26.861Z,100.00
2023-02-27T22:08:57.871Z,100.00
2023-02-27T22:11:26.419Z,100.00
2023-02-27T22:13:53.471Z,100.00
2023-02-27T22:16:21.070Z,100.00
2023-02-27T22:18:48.088Z,100.00
2023-02-27T22:21:21.577Z,100.00
2023-02-27T22:23:48.826Z,100.00
2023-02-27T22:26:18.469Z,100.00
2023-02-27T22:28:45.087Z,100.00
2023-02-27T22:31:17.272Z,100.00
2023-02-27T22:33:45.676Z,100.00
2023-02-27T22:36:18.149Z,100.00
2023-02-27T22:38:44.969Z,100.00
2023-02-27T22:41:14.217Z,100.00
2023-02-27T22:43:41.352Z,100.00
2023-02-27T22:46:09.071Z,100.00
2023-02-27T22:48:36.333Z,100.00
2023-02-27T22:51:06.087Z,100.00
2023-02-27T22:53:39.514Z,100.00
2023-02-27T22:56:07.843Z,100.00
2023-02-27T22:58:37.218Z,100.00
2023-02-27T23:01:18.773Z,100.00
2023-02-27T23:03:47.545Z,100.00
2023-02-27T23:06:17.814Z,100.00
2023-02-27T23:08:45.062Z,100.00
2023-02-27T23:11:14.080Z,100.00
2023-02-27T23:13:41.044Z,100.00
2023-02-27T23:16:11.776Z,100.00
2023-02-27T23:18:42.505Z,100.00
2023-02-27T23:21:10.202Z,100.00
2023-02-27T23:23:37.057Z,100.00
2023-02-27T23:26:05.790Z,100.00
2023-02-27T23:28:34.138Z,100.00
2023-02-27T23:31:00.739Z,100.00
2023-02-27T23:33:27.982Z,100.00
2023-02-27T23:35:54.960Z,100.00
2023-02-27T23:38:21.934Z,100.00
2023-02-27T23:40:48.462Z,100.00
2023-02-27T23:43:15.488Z,100.00
2023-02-27T23:45:42.326Z,100.00
2023-02-27T23:48:09.244Z,100.00
2023-02-27T23:50:38.969Z,100.00
2023-02-27T23:53:06.672Z,100.00
2023-02-27T23:55:36.018Z,100.00
2023-02-27T23:58:05.077Z,100.00
